This is the latest recevied weather packets stored in our database for station/object KE5WTH-14. If no packets are shown the sender has not sent any weather packets the latest 10 day(s).
| Time | Temp. | Humidity | Pressure | Rain* | Wind** | Luminosity | Snow |
|---|---|---|---|---|---|---|---|
| 1778277663 | 25.56° C | 66% | 1008.5 hPa | 0 mm | - | 329 W/m² | - |
| 1778277602 | 25.56° C | 65% | 1008.4 hPa | 0 mm | - | 341 W/m² | - |
| 1778277542 | 26.11° C | 66% | 1008.4 hPa | 0 mm | - | 450 W/m² | - |
| 1778277485 | 26.11° C | 67% | 1008.4 hPa | 0 mm | - | 396 W/m² | - |
| 1778277423 | 26.11° C | 66% | 1008.4 hPa | 0 mm | - | 396 W/m² | - |
| 1778277364 | 26.11° C | 66% | 1008.4 hPa | 0 mm | - | 396 W/m² | - |
| 1778277302 | 26.11° C | 66% | 1008.4 hPa | 0 mm | - | 396 W/m² | - |
| 1778277243 | 26.11° C | 67% | 1008.4 hPa | 0 mm | - | 675 W/m² | - |
| 1778277184 | 26.11° C | 63% | 1008.4 hPa | 0 mm | - | 464 W/m² | - |
| 1778277108 | 26.11° C | 66% | 1008.4 hPa | 0 mm | - | 610 W/m² | - |
| 1778277047 | 26.11° C | 65% | 1008.4 hPa | 0 mm | - | 700 W/m² | - |
| 1778276987 | 26.11° C | 66% | 1008.4 hPa | 0 mm | - | 684 W/m² | - |
| 1778276929 | 26.11° C | 64% | 1008.4 hPa | 0 mm | - | 640 W/m² | - |
| 1778276862 | 26.11° C | 64% | 1008.4 hPa | 0 mm | - | 652 W/m² | - |
| 1778276801 | 26.11° C | 65% | 1008.3 hPa | 0 mm | - | 659 W/m² | - |
| 1778276741 | 26.11° C | 64% | 1008.4 hPa | 0 mm | - | 665 W/m² | - |
| 1778276680 | 26.11° C | 64% | 1008.4 hPa | 0 mm | - | 666 W/m² | - |
| 1778276620 | 26.11° C | 65% | 1008.4 hPa | 0 mm | - | 670 W/m² | - |
| 1778276560 | 26.11° C | 64% | 1008.3 hPa | 0 mm | - | 670 W/m² | - |
| 1778276500 | 26.11° C | 64% | 1008.3 hPa | 0 mm | - | 666 W/m² | - |
| 1778276441 | 26.11° C | 64% | 1008.3 hPa | 0 mm | - | 670 W/m² | - |
| 1778276381 | 26.11° C | 63% | 1008.3 hPa | 0 mm | - | 675 W/m² | - |
| 1778276320 | 26.11° C | 63% | 1008.4 hPa | 0 mm | - | 675 W/m² | - |
| 1778276260 | 26.67° C | 64% | 1008.3 hPa | 0 mm | - | 686 W/m² | - |
| 1778276201 | 26.67° C | 62% | 1008.3 hPa | 0 mm | - | 700 W/m² | - |
* Rain latest hour (hover to see other rain measurements)
** Current wind speed in m/s (hover to see current wind gust speed)